Marysville, California
Current Conditions -  °F | °C
As of 7:07 PM on Saturday 22 Nov 2014 (Local Time) from KMYV Reporting Station
Moderate Fog Moderate Fog  
Wind Chill: 48°   Ceiling: 400
Heat Index: 48°   Visibility: 0.25mi
Dew Point: 48°   Wind: 0mph
Humidity: 100%   Direction: NA
Pressure: 30.2"   Gusts: NA
Location:  39.15°N, 121.58°W
Report Text: KMYV 230307Z AUTO 00000KT 1/4SM FG VV004 09/09 A3020 RMK AO2 T00890089
Loading
Personal Weather Stations






























Interactive Weather Map New forecast layout! Learn more

10-Day Weather Forecast

Advertisements
Track Severe Weather on mobile